Time;durP1;ratioP1;P1;durP2;ratioP2;P2;SDS_P1;SDS_P2;PMS_P1;PMS_P2;Temp;Humidity;BMP_temperature;BMP_pressure;BME280_temperature;BME280_humidity;BME280_pressure;Samples;Min_cycle;Max_cycle;Signal;HPM_P1;HPM_P2
2024/03/31 00:00:07;;;;;;;49.03;32.90;;;;;22.30;98868.00;;;;2043321;28;20239;-58
2024/03/31 00:01:08;;;;;;;47.83;32.03;;;;;22.30;98868.00;;;;2049406;28;20278;-58
2024/03/31 00:02:08;;;;;;;47.20;31.30;;;;;22.30;98869.00;;;;2054198;28;20306;-58
2024/03/31 00:03:08;;;;;;;44.33;31.50;;;;;22.30;98867.00;;;;2052053;28;20239;-56
2024/03/31 00:04:10;;;;;;;46.33;30.27;;;;;22.30;98863.00;;;;2052299;28;20220;-58
2024/03/31 00:05:10;;;;;;;49.03;31.10;;;;;22.30;98868.00;;;;2041922;28;20246;-58
2024/03/31 00:06:11;;;;;;;43.57;30.70;;;;;22.30;98863.00;;;;2049751;28;20694;-58
2024/03/31 00:07:11;;;;;;;45.40;30.70;;;;;22.20;98861.00;;;;2051794;28;20591;-57
2024/03/31 00:08:12;;;;;;;45.50;30.17;;;;;22.20;98859.00;;;;2051643;28;20246;-58
2024/03/31 00:09:12;;;;;;;45.37;29.90;;;;;22.30;98862.00;;;;2050322;28;20216;-57
2024/03/31 00:10:12;;;;;;;45.30;30.07;;;;;22.30;98863.00;;;;2045409;28;20238;-58
2024/03/31 00:11:13;;;;;;;41.47;28.93;;;;;22.30;98855.00;;;;2058781;28;20873;-58
2024/03/31 00:12:13;;;;;;;44.60;30.43;;;;;22.30;98853.00;;;;2057231;28;20318;-58
2024/03/31 00:13:13;;;;;;;40.60;29.80;;;;;22.20;98847.00;;;;2051300;28;20219;-58
2024/03/31 00:14:14;;;;;;;42.43;27.73;;;;;22.20;98841.00;;;;2050412;28;20207;-58
2024/03/31 00:15:14;;;;;;;44.00;29.63;;;;;22.20;98834.00;;;;2042248;28;20231;-57
2024/03/31 00:16:14;;;;;;;41.90;28.70;;;;;22.20;98838.00;;;;2052495;28;20242;-58
2024/03/31 00:17:15;;;;;;;45.67;30.40;;;;;22.20;98835.00;;;;2052542;28;20243;-57
2024/03/31 00:18:15;;;;;;;42.37;28.40;;;;;22.20;98837.00;;;;2054731;28;20223;-58
2024/03/31 00:19:15;;;;;;;44.57;28.50;;;;;22.20;98844.00;;;;2052197;28;20234;-58
2024/03/31 00:20:16;;;;;;;43.00;29.27;;;;;22.20;98841.00;;;;2039449;28;21058;-58
2024/03/31 00:21:16;;;;;;;40.13;26.90;;;;;22.20;98842.00;;;;2058365;28;20865;-57
2024/03/31 00:22:16;;;;;;;42.40;28.40;;;;;22.20;98840.00;;;;2052176;28;20223;-58
2024/03/31 00:23:17;;;;;;;38.40;27.33;;;;;22.20;98830.00;;;;2050357;28;20234;-58
2024/03/31 00:24:17;;;;;;;41.23;27.80;;;;;22.20;98830.00;;;;2052700;28;20307;-58
2024/03/31 00:25:17;;;;;;;38.70;26.07;;;;;22.20;98644.00;;;;2044557;28;20231;-58
2024/03/31 00:26:18;;;;;;;38.77;28.83;;;;;22.20;98820.00;;;;2053409;28;20571;-58
2024/03/31 00:27:18;;;;;;;41.00;26.90;;;;;22.20;98816.00;;;;2056553;28;20228;-58
2024/03/31 00:28:18;;;;;;;40.40;27.07;;;;;22.20;98824.00;;;;2048980;28;20224;-58
2024/03/31 00:29:19;;;;;;;39.37;27.17;;;;;22.20;98830.00;;;;2051633;28;20554;-57
2024/03/31 00:30:19;;;;;;;34.50;25.83;;;;;22.20;98831.00;;;;2031890;28;20626;-58
2024/03/31 00:31:19;;;;;;;40.80;26.50;;;;;22.20;98838.00;;;;2048662;28;20223;-58
2024/03/31 00:32:20;;;;;;;37.47;26.00;;;;;22.20;98751.00;;;;2051622;28;20438;-58
2024/03/31 00:33:20;;;;;;;41.20;27.03;;;;;22.20;98844.00;;;;2052460;28;20549;-58
2024/03/31 00:34:23;;;;;;;42.23;25.90;;;;;22.20;98840.00;;;;2051593;28;21014;-58
2024/03/31 00:35:24;;;;;;;37.30;25.92;;;;;22.10;98846.00;;;;2042807;28;20227;-58
2024/03/31 00:36:24;;;;;;;37.43;26.33;;;;;22.10;98845.00;;;;2048343;28;20224;-58
2024/03/31 00:37:24;;;;;;;37.10;25.70;;;;;22.20;98844.00;;;;2049813;28;20228;-58
2024/03/31 00:38:25;;;;;;;40.57;25.90;;;;;22.10;98845.00;;;;2052004;28;20243;-58
2024/03/31 00:39:25;;;;;;;37.50;26.20;;;;;22.10;98850.00;;;;2051216;28;20228;-58
2024/03/31 00:40:25;;;;;;;38.90;25.73;;;;;22.10;98843.00;;;;2049089;28;20747;-58
2024/03/31 00:41:26;;;;;;;35.37;25.10;;;;;22.10;98865.00;;;;2051685;28;20703;-58
2024/03/31 00:42:26;;;;;;;37.47;24.73;;;;;22.10;98847.00;;;;2049892;28;20938;-58
2024/03/31 00:43:27;;;;;;;35.83;25.77;;;;;22.10;98840.00;;;;2052267;28;20720;-57
2024/03/31 00:44:27;;;;;;;35.35;25.60;;;;;22.10;98841.00;;;;2042440;28;20224;-58
2024/03/31 00:45:30;;;;;;;36.23;24.20;;;;;22.10;98836.00;;;;2033530;28;20928;-58
2024/03/31 00:46:31;;;;;;;37.67;26.67;;;;;22.10;98844.00;;;;2048257;28;20398;-58
2024/03/31 00:47:31;;;;;;;36.50;24.67;;;;;22.10;98836.00;;;;2051763;28;20223;-58
2024/03/31 00:48:31;;;;;;;33.57;23.10;;;;;22.10;98836.00;;;;2049028;28;20274;-58
2024/03/31 00:49:32;;;;;;;32.67;23.93;;;;;22.10;98835.00;;;;2051573;28;20211;-58
2024/03/31 00:50:32;;;;;;;36.80;23.80;;;;;22.10;98831.00;;;;2041352;28;20605;-58
2024/03/31 00:51:33;;;;;;;29.17;21.13;;;;;22.10;98720.00;;;;2056760;28;20651;-58
2024/03/31 00:52:33;;;;;;;35.50;23.03;;;;;22.10;98831.00;;;;2053825;28;20333;-58
2024/03/31 00:53:33;;;;;;;33.50;23.87;;;;;22.10;98832.00;;;;2051128;28;20610;-58
2024/03/31 00:54:37;;;;;;;31.53;23.00;;;;;22.10;98826.00;;;;2052196;28;20647;-58
2024/03/31 00:55:38;;;;;;;31.70;22.55;;;;;22.10;98835.00;;;;2046641;28;20238;-58
2024/03/31 00:56:38;;;;;;;34.30;23.27;;;;;22.10;98826.00;;;;2044817;28;20743;-58
2024/03/31 00:57:38;;;;;;;32.60;22.30;;;;;22.10;98826.00;;;;2052221;28;20216;-58
2024/03/31 00:58:38;;;;;;;32.20;22.47;;;;;22.10;98828.00;;;;2051028;28;20759;-58
2024/03/31 00:59:39;;;;;;;33.30;21.80;;;;;22.10;98834.00;;;;2045113;28;20725;-58
2024/03/31 01:00:39;;;;;;;32.03;22.90;;;;;22.10;98671.00;;;;2040506;28;20226;-57
2024/03/31 01:01:40;;;;;;;30.13;21.87;;;;;22.10;98836.00;;;;2052567;28;20212;-56
2024/03/31 01:02:41;;;;;;;31.30;21.27;;;;;22.10;98834.00;;;;2052351;28;20782;-58
2024/03/31 01:03:41;;;;;;;31.47;22.40;;;;;22.10;98838.00;;;;2051487;28;20679;-58
2024/03/31 01:04:41;;;;;;;27.17;21.50;;;;;22.10;98843.00;;;;2053434;28;20478;-58
2024/03/31 01:05:43;;;;;;;34.57;21.57;;;;;22.00;98839.00;;;;2043177;28;20239;-58
2024/03/31 01:06:43;;;;;;;27.55;20.92;;;;;22.10;98837.00;;;;2052028;28;20211;-57
2024/03/31 01:07:43;;;;;;;31.00;22.27;;;;;22.00;98827.00;;;;2050993;28;20607;-57
2024/03/31 01:08:44;;;;;;;28.20;20.90;;;;;22.10;98834.00;;;;2037334;28;20208;-58
2024/03/31 01:09:44;;;;;;;30.13;21.60;;;;;22.00;98832.00;;;;2042670;28;20212;-58
2024/03/31 01:10:45;;;;;;;28.10;20.00;;;;;22.00;98838.00;;;;2040036;28;20270;-58
2024/03/31 01:11:45;;;;;;;29.17;19.63;;;;;22.00;98827.00;;;;2053196;28;20239;-57
2024/03/31 01:12:45;;;;;;;28.03;19.90;;;;;22.00;98825.00;;;;2054690;28;20292;-58
2024/03/31 01:13:49;;;;;;;28.27;20.20;;;;;22.00;98834.00;;;;2048231;28;20208;-57
2024/03/31 01:14:49;;;;;;;30.02;21.00;;;;;22.00;98827.00;;;;2041735;28;20219;-58
2024/03/31 01:15:50;;;;;;;27.77;20.80;;;;;22.00;98828.00;;;;2046645;28;20228;-58
2024/03/31 01:16:50;;;;;;;31.63;21.23;;;;;22.00;98828.00;;;;2050196;28;20287;-58
2024/03/31 01:17:50;;;;;;;27.00;20.30;;;;;22.00;98829.00;;;;2050179;28;20215;-58
2024/03/31 01:18:51;;;;;;;28.60;19.47;;;;;22.00;98826.00;;;;2046617;28;20245;-58
2024/03/31 01:19:51;;;;;;;27.40;19.70;;;;;22.00;98813.00;;;;2041094;28;20214;-58
2024/03/31 01:20:51;;;;;;;29.00;20.63;;;;;22.00;98830.00;;;;2045069;28;20220;-58
2024/03/31 01:21:51;;;;;;;30.00;20.10;;;;;22.00;98835.00;;;;2040136;28;20240;-58
2024/03/31 01:22:52;;;;;;;25.67;20.00;;;;;22.00;98837.00;;;;2050787;28;20219;-58
2024/03/31 01:24:01;;;;;;;26.10;19.27;;;;;22.00;98830.00;;;;2046807;28;20223;-58
2024/03/31 01:25:01;;;;;;;32.63;21.20;;;;;22.00;98832.00;;;;2043029;28;20231;-58
2024/03/31 01:26:02;;;;;;;25.33;18.87;;;;;22.00;98830.00;;;;2062846;28;20959;-58
2024/03/31 01:27:03;;;;;;;24.73;18.60;;;;;22.00;98828.00;;;;2058535;28;20825;-58
2024/03/31 01:28:03;;;;;;;26.23;19.80;;;;;22.00;98831.00;;;;2054882;28;20223;-58
2024/03/31 01:29:03;;;;;;;29.00;19.50;;;;;22.00;98843.00;;;;2042948;28;20223;-58
2024/03/31 01:30:04;;;;;;;25.03;19.00;;;;;22.00;98841.00;;;;2037560;28;20215;-58
2024/03/31 01:31:04;;;;;;;25.43;18.30;;;;;22.00;98848.00;;;;2048988;28;20215;-58
2024/03/31 01:32:05;;;;;;;26.13;18.77;;;;;22.00;98848.00;;;;2051948;28;20564;-58
2024/03/31 01:33:05;;;;;;;26.47;18.00;;;;;22.00;98851.00;;;;2050805;28;20270;-58
2024/03/31 01:34:05;;;;;;;25.07;18.10;;;;;22.00;98847.00;;;;2043136;28;20250;-58
2024/03/31 01:35:06;;;;;;;24.47;19.03;;;;;22.00;98850.00;;;;2037958;28;20220;-57
2024/03/31 01:36:06;;;;;;;23.57;18.20;;;;;22.00;98843.00;;;;2049384;28;20228;-58
2024/03/31 01:37:06;;;;;;;26.73;18.93;;;;;22.00;98851.00;;;;2049738;28;20262;-58
2024/03/31 01:38:07;;;;;;;26.30;18.57;;;;;22.00;98845.00;;;;2055806;28;20430;-62
2024/03/31 01:39:07;;;;;;;25.20;17.43;;;;;22.00;98837.00;;;;2054679;28;20247;-59
2024/03/31 01:40:08;;;;;;;23.43;18.27;;;;;22.00;98840.00;;;;2042159;28;20231;-58
2024/03/31 01:41:08;;;;;;;23.90;17.30;;;;;22.00;98843.00;;;;2048735;28;20639;-59
2024/03/31 01:42:09;;;;;;;24.33;18.30;;;;;22.00;98836.00;;;;2052806;28;20908;-58
2024/03/31 01:43:09;;;;;;;25.80;18.97;;;;;22.00;98849.00;;;;2053396;28;20226;-59
2024/03/31 01:44:09;;;;;;;24.77;16.97;;;;;22.00;98836.00;;;;2050356;28;20373;-58
2024/03/31 01:45:11;;;;;;;24.10;17.60;;;;;22.00;98843.00;;;;2040901;28;20590;-59
2024/03/31 01:46:11;;;;;;;24.33;18.08;;;;;22.00;98832.00;;;;2052770;28;20265;-58
2024/03/31 01:47:12;;;;;;;23.57;18.40;;;;;22.00;98836.00;;;;2052962;28;20624;-58
2024/03/31 01:48:12;;;;;;;23.37;17.37;;;;;22.00;98843.00;;;;2049792;28;20695;-58
2024/03/31 01:49:12;;;;;;;23.20;17.07;;;;;22.00;98837.00;;;;2048515;28;20893;-58
2024/03/31 01:50:13;;;;;;;21.73;16.50;;;;;22.00;98836.00;;;;2045573;28;20735;-58
2024/03/31 01:51:13;;;;;;;21.77;16.70;;;;;22.00;98844.00;;;;2055943;28;20567;-57
2024/03/31 01:52:13;;;;;;;25.00;17.53;;;;;22.00;98847.00;;;;2054961;28;20672;-58
2024/03/31 01:53:14;;;;;;;24.80;17.17;;;;;21.90;98843.00;;;;2052401;28;20933;-57
2024/03/31 01:54:14;;;;;;;22.30;17.00;;;;;22.00;98841.00;;;;2048663;28;20645;-57
2024/03/31 01:55:14;;;;;;;23.97;17.00;;;;;21.90;98840.00;;;;2040619;28;20626;-58
2024/03/31 01:56:15;;;;;;;21.43;17.10;;;;;21.90;98838.00;;;;2050149;28;20642;-58
2024/03/31 01:57:15;;;;;;;23.43;16.27;;;;;22.00;98836.00;;;;2052510;28;20216;-58
2024/03/31 01:58:15;;;;;;;24.17;17.77;;;;;21.90;98841.00;;;;2049144;28;20207;-57
2024/03/31 01:59:16;;;;;;;18.60;15.47;;;;;21.90;98838.00;;;;2052814;28;20215;-58
2024/03/31 02:00:16;;;;;;;21.53;17.13;;;;;21.90;98839.00;;;;2043377;28;20215;-58
2024/03/31 02:01:16;;;;;;;20.60;15.80;;;;;21.90;98845.00;;;;2050812;28;20299;-58
2024/03/31 02:02:17;;;;;;;21.97;16.77;;;;;21.90;98844.00;;;;2053182;28;20211;-58
2024/03/31 02:03:18;;;;;;;21.43;16.60;;;;;21.90;98850.00;;;;2055678;28;20227;-57
2024/03/31 02:04:18;;;;;;;22.63;15.85;;;;;21.90;98850.00;;;;2053607;28;20227;-58
2024/03/31 02:05:18;;;;;;;21.77;16.30;;;;;21.90;98854.00;;;;2042766;28;20751;-57
2024/03/31 02:06:19;;;;;;;21.27;15.50;;;;;21.90;98892.00;;;;2053336;28;20735;-58
2024/03/31 02:07:20;;;;;;;23.60;16.90;;;;;21.90;98855.00;;;;2058511;28;20750;-58
2024/03/31 02:08:20;;;;;;;22.10;16.60;;;;;22.00;98856.00;;;;2052450;28;20314;-57
2024/03/31 02:09:20;;;;;;;24.10;15.83;;;;;22.00;98860.00;;;;2051088;28;20211;-58
2024/03/31 02:10:21;;;;;;;21.20;16.90;;;;;21.90;98850.00;;;;2043079;28;20235;-58
2024/03/31 02:11:21;;;;;;;20.60;15.60;;;;;21.90;98854.00;;;;2058190;28;20309;-57
2024/03/31 02:12:21;;;;;;;20.07;16.40;;;;;21.90;98858.00;;;;2052009;28;20938;-58
2024/03/31 02:13:22;;;;;;;22.83;16.63;;;;;21.90;98858.00;;;;2052794;28;20227;-58
2024/03/31 02:14:23;;;;;;;25.30;17.40;;;;;21.90;98861.00;;;;2052000;28;20623;-58
2024/03/31 02:15:23;;;;;;;22.07;15.30;;;;;21.90;98860.00;;;;2038327;28;20250;-58
2024/03/31 02:16:23;;;;;;;21.33;15.40;;;;;21.90;98867.00;;;;2052660;28;20227;-58
2024/03/31 02:17:24;;;;;;;17.93;14.83;;;;;21.90;98858.00;;;;2050821;28;20234;-58
2024/03/31 02:18:24;;;;;;;19.00;15.67;;;;;21.90;98867.00;;;;2052069;28;20227;-58
2024/03/31 02:19:24;;;;;;;21.07;15.30;;;;;21.90;98863.00;;;;2052458;28;20243;-58
2024/03/31 02:20:25;;;;;;;20.23;16.00;;;;;21.60;98863.00;;;;2041822;28;20220;-58
2024/03/31 02:21:25;;;;;;;21.43;15.63;;;;;21.90;98855.00;;;;2053292;28;20222;-58
2024/03/31 02:22:25;;;;;;;19.33;14.90;;;;;21.90;98846.00;;;;2051254;28;20242;-58
2024/03/31 02:23:26;;;;;;;19.67;15.30;;;;;21.90;98851.00;;;;2053402;28;20208;-57
2024/03/31 02:24:26;;;;;;;21.73;14.80;;;;;21.90;98849.00;;;;2052003;28;20221;-58
2024/03/31 02:25:26;;;;;;;18.63;14.87;;;;;21.80;98839.00;;;;2043762;28;20227;-56
2024/03/31 02:26:26;;;;;;;21.73;15.73;;;;;21.80;98839.00;;;;2052414;28;20211;-56
2024/03/31 02:27:27;;;;;;;19.93;14.97;;;;;21.80;98839.00;;;;2052062;28;20274;-58
2024/03/31 02:28:29;;;;;;;20.90;14.67;;;;;21.80;98835.00;;;;2047279;28;20224;-58
2024/03/31 02:29:29;;;;;;;19.17;14.10;;;;;21.90;98788.00;;;;2048979;28;20212;-58
2024/03/31 02:30:30;;;;;;;20.27;15.10;;;;;21.90;98841.00;;;;2043038;28;21141;-57
2024/03/31 02:31:30;;;;;;;20.23;14.93;;;;;21.90;98842.00;;;;2044617;28;20231;-58
2024/03/31 02:32:31;;;;;;;18.10;14.40;;;;;21.80;98837.00;;;;2053821;28;20223;-56
2024/03/31 02:33:31;;;;;;;21.03;15.40;;;;;21.90;98842.00;;;;2053150;28;20580;-58
2024/03/31 02:34:32;;;;;;;18.17;14.70;;;;;21.90;98841.00;;;;2046334;28;20639;-57
2024/03/31 02:35:32;;;;;;;20.20;14.73;;;;;21.90;98838.00;;;;2043601;28;20343;-57
2024/03/31 02:36:32;;;;;;;17.30;14.10;;;;;21.90;98840.00;;;;2049962;28;20220;-60
2024/03/31 02:37:33;;;;;;;18.27;13.87;;;;;21.80;98844.00;;;;2051946;28;20231;-57
2024/03/31 02:38:33;;;;;;;19.00;13.90;;;;;21.80;98840.00;;;;2052657;28;20219;-57
2024/03/31 02:39:33;;;;;;;17.33;13.37;;;;;21.80;98843.00;;;;2049354;28;20224;-57
2024/03/31 02:40:34;;;;;;;19.10;14.60;;;;;21.80;98840.00;;;;2046952;28;20354;-58
2024/03/31 02:41:35;;;;;;;17.43;13.90;;;;;21.80;98847.00;;;;2045113;28;20692;-59
2024/03/31 02:42:35;;;;;;;18.40;15.33;;;;;21.80;98842.00;;;;2048129;28;20534;-57
2024/03/31 02:43:35;;;;;;;23.20;15.57;;;;;21.80;98847.00;;;;2054601;28;20223;-56
2024/03/31 02:44:35;;;;;;;15.93;13.97;;;;;21.80;98851.00;;;;2053923;28;20223;-56
2024/03/31 02:45:36;;;;;;;23.97;14.60;;;;;21.90;98850.00;;;;2042725;28;20243;-57
2024/03/31 02:46:36;;;;;;;19.67;14.00;;;;;21.90;98847.00;;;;2052473;28;20219;-58
2024/03/31 02:47:36;;;;;;;19.73;14.40;;;;;21.80;98849.00;;;;2053024;28;20228;-58
2024/03/31 02:48:37;;;;;;;20.80;13.87;;;;;21.90;98850.00;;;;2050971;28;20215;-58
2024/03/31 02:49:37;;;;;;;16.60;13.33;;;;;21.80;98856.00;;;;2053494;28;20294;-57
2024/03/31 02:50:37;;;;;;;16.47;13.50;;;;;21.80;98851.00;;;;2041126;28;21649;-56
2024/03/31 02:51:38;;;;;;;15.70;13.27;;;;;21.80;98847.00;;;;2052709;28;20226;-57
2024/03/31 02:52:38;;;;;;;22.53;15.07;;;;;21.80;98847.00;;;;2052391;28;20239;-57
2024/03/31 02:53:38;;;;;;;17.23;14.03;;;;;21.80;98847.00;;;;2052280;28;20247;-57
2024/03/31 02:54:39;;;;;;;19.93;13.73;;;;;21.80;98844.00;;;;2052997;28;20215;-57
2024/03/31 02:55:39;;;;;;;19.23;13.87;;;;;21.80;98844.00;;;;2042712;28;20306;-57
2024/03/31 02:56:39;;;;;;;18.03;13.20;;;;;21.80;98845.00;;;;2053051;28;20227;-58
2024/03/31 02:57:40;;;;;;;17.23;13.20;;;;;21.20;98838.00;;;;2052186;28;20231;-57
2024/03/31 02:58:41;;;;;;;16.45;13.57;;;;;21.80;98843.00;;;;2050956;28;20357;-58
2024/03/31 02:59:41;;;;;;;18.13;13.60;;;;;21.80;98846.00;;;;2052881;28;20298;-57
2024/03/31 03:00:42;;;;;;;15.50;13.20;;;;;21.80;98847.00;;;;2041836;28;20230;-58
2024/03/31 03:01:42;;;;;;;17.00;13.50;;;;;21.80;98844.00;;;;2052847;28;20215;-57
2024/03/31 03:02:42;;;;;;;20.60;14.70;;;;;21.50;98844.00;;;;2055353;28;20234;-56
2024/03/31 03:03:44;;;;;;;16.43;13.67;;;;;21.50;98844.00;;;;2047858;28;20216;-55
2024/03/31 03:04:44;;;;;;;16.92;13.15;;;;;21.80;98846.00;;;;2051154;28;20560;-58
2024/03/31 03:05:53;;;;;;;19.70;14.00;;;;;21.80;98848.00;;;;2028223;28;20356;-56
2024/03/31 03:06:53;;;;;;;15.48;13.13;;;;;21.80;98848.00;;;;2039332;28;20215;-56
2024/03/31 03:07:53;;;;;;;18.07;14.30;;;;;21.80;98847.00;;;;2051777;28;20199;-59
2024/03/31 03:08:54;;;;;;;17.93;14.27;;;;;21.80;98849.00;;;;2049070;28;20282;-58
2024/03/31 03:09:54;;;;;;;16.10;13.10;;;;;21.80;98847.00;;;;2038738;28;20638;-57
2024/03/31 03:10:55;;;;;;;17.90;13.87;;;;;21.80;98846.00;;;;2051789;28;20222;-58
2024/03/31 03:11:56;;;;;;;18.10;13.70;;;;;21.80;98846.00;;;;2049816;28;20212;-57
2024/03/31 03:12:59;;;;;;;15.30;12.40;;;;;21.80;98841.00;;;;2052128;28;20989;-58
2024/03/31 03:13:59;;;;;;;18.17;14.02;;;;;21.80;98852.00;;;;2048393;28;20216;-57
2024/03/31 03:14:59;;;;;;;18.07;13.60;;;;;21.80;98853.00;;;;2040983;28;20223;-57
2024/03/31 03:16:03;;;;;;;16.07;12.33;;;;;21.80;98844.00;;;;2052935;28;20219;-58
2024/03/31 03:17:07;;;;;;;15.35;12.85;;;;;21.80;98844.00;;;;2051184;28;20310;-57
2024/03/31 03:18:07;;;;;;;17.85;14.43;;;;;21.80;98847.00;;;;2051998;28;20219;-58
2024/03/31 03:19:07;;;;;;;16.70;13.87;;;;;21.80;98845.00;;;;2047161;28;20211;-58
2024/03/31 03:20:08;;;;;;;17.40;13.47;;;;;21.80;98846.00;;;;2038387;28;20261;-58
2024/03/31 03:21:08;;;;;;;16.77;12.83;;;;;21.80;98845.00;;;;2051508;28;20224;-58
2024/03/31 03:22:08;;;;;;;15.33;13.03;;;;;21.70;98841.00;;;;2049085;28;20236;-58
2024/03/31 03:23:09;;;;;;;14.97;11.67;;;;;21.80;98846.00;;;;2052942;28;20250;-58
2024/03/31 03:24:09;;;;;;;19.30;13.03;;;;;21.80;98843.00;;;;2043167;28;20223;-58
2024/03/31 03:25:09;;;;;;;17.23;13.23;;;;;21.80;98741.00;;;;2034977;28;20377;-56
2024/03/31 03:26:10;;;;;;;17.60;13.50;;;;;21.80;98849.00;;;;2043021;28;20224;-58
2024/03/31 03:27:10;;;;;;;16.40;12.73;;;;;21.80;98848.00;;;;2043424;28;20224;-57
2024/03/31 03:28:10;;;;;;;15.80;13.30;;;;;21.80;98853.00;;;;2054176;28;20216;-58
2024/03/31 03:29:11;;;;;;;17.27;13.03;;;;;21.80;98851.00;;;;2048310;28;20235;-57
2024/03/31 03:30:11;;;;;;;17.17;13.67;;;;;21.80;98851.00;;;;2041798;28;20238;-58
2024/03/31 03:31:12;;;;;;;14.93;12.40;;;;;21.80;98857.00;;;;2051371;28;20223;-57
2024/03/31 03:32:12;;;;;;;15.43;13.33;;;;;21.80;98856.00;;;;2051634;28;20225;-55
2024/03/31 03:33:13;;;;;;;17.40;13.70;;;;;21.80;98848.00;;;;2055594;28;20562;-57
2024/03/31 03:34:14;;;;;;;15.90;12.57;;;;;21.80;98848.00;;;;2042878;28;20228;-56
2024/03/31 03:35:14;;;;;;;15.37;12.40;;;;;21.80;98851.00;;;;2030444;28;20812;-55
2024/03/31 03:36:14;;;;;;;16.00;12.70;;;;;21.80;98784.00;;;;2049555;28;20626;-58
2024/03/31 03:37:15;;;;;;;15.23;12.33;;;;;21.80;98817.00;;;;2044860;28;20228;-58
2024/03/31 03:38:15;;;;;;;15.83;13.13;;;;;21.80;98798.00;;;;2036829;28;20223;-58
2024/03/31 03:39:17;;;;;;;15.90;12.37;;;;;21.80;98863.00;;;;2047809;28;20307;-59
2024/03/31 03:40:17;;;;;;;14.90;12.77;;;;;21.80;98771.00;;;;2040177;28;20278;-58
2024/03/31 03:41:17;;;;;;;18.37;13.80;;;;;21.60;98837.00;;;;2043084;28;20216;-58
2024/03/31 03:42:18;;;;;;;15.10;13.10;;;;;21.70;98684.00;;;;2048202;28;20294;-58
2024/03/31 03:43:18;;;;;;;16.97;13.23;;;;;21.70;98739.00;;;;2047816;28;20204;-58
2024/03/31 03:44:18;;;;;;;14.60;12.97;;;;;21.70;98830.00;;;;2035662;28;20220;-58
2024/03/31 03:45:19;;;;;;;16.00;12.60;;;;;21.70;98744.00;;;;2021140;28;20224;-58
2024/03/31 03:46:19;;;;;;;15.10;12.30;;;;;21.70;98838.00;;;;2048950;28;20249;-58
2024/03/31 03:47:19;;;;;;;15.40;12.93;;;;;21.70;98732.00;;;;2040496;28;20221;-58
2024/03/31 03:48:20;;;;;;;15.10;13.13;;;;;21.70;98577.00;;;;2043197;28;20583;-59
2024/03/31 03:49:20;;;;;;;14.47;11.57;;;;;21.70;98843.00;;;;2043138;28;20220;-59
2024/03/31 03:50:20;;;;;;;18.67;13.07;;;;;21.70;98744.00;;;;2038153;28;20298;-59
2024/03/31 03:51:21;;;;;;;15.00;12.47;;;;;21.70;98811.00;;;;2044517;28;20220;-59
2024/03/31 03:52:21;;;;;;;17.87;13.00;;;;;21.70;98809.00;;;;2044692;28;20228;-59
2024/03/31 03:53:21;;;;;;;16.10;13.10;;;;;21.70;98791.00;;;;2042862;28;22208;-59
2024/03/31 03:54:23;;;;;;;16.43;13.30;;;;;21.70;98890.00;;;;2045219;28;20322;-58
2024/03/31 03:55:23;;;;;;;14.95;12.60;;;;;21.70;98830.00;;;;2041704;28;20223;-55
2024/03/31 03:56:23;;;;;;;16.03;12.40;;;;;21.70;98833.00;;;;2059396;28;20223;-57
2024/03/31 03:57:24;;;;;;;15.83;13.03;;;;;21.70;98845.00;;;;2052969;28;20270;-57
2024/03/31 03:58:24;;;;;;;16.10;12.53;;;;;21.70;98832.00;;;;2052729;28;20235;-57
2024/03/31 03:59:24;;;;;;;14.23;12.37;;;;;21.70;98835.00;;;;2052063;28;20215;-58
2024/03/31 04:00:25;;;;;;;16.00;12.53;;;;;21.70;98832.00;;;;2037729;28;20282;-58
2024/03/31 04:01:25;;;;;;;16.93;12.60;;;;;21.70;98831.00;;;;2052433;28;20216;-59
2024/03/31 04:02:25;;;;;;;15.00;12.47;;;;;21.70;98834.00;;;;2051017;28;20309;-58
2024/03/31 04:03:26;;;;;;;15.20;12.93;;;;;21.70;98826.00;;;;2051843;28;20282;-55
2024/03/31 04:04:26;;;;;;;14.60;11.80;;;;;21.70;98830.00;;;;2050997;28;20219;-55
2024/03/31 04:05:26;;;;;;;15.30;11.93;;;;;21.70;98832.00;;;;2042934;28;20220;-57
2024/03/31 04:06:27;;;;;;;14.77;11.77;;;;;21.70;98830.00;;;;2053093;28;20299;-58
2024/03/31 04:07:27;;;;;;;17.07;13.50;;;;;21.70;98828.00;;;;2051652;28;20215;-58
2024/03/31 04:08:27;;;;;;;13.97;11.70;;;;;21.70;98826.00;;;;2051482;28;20692;-58
2024/03/31 04:09:31;;;;;;;12.87;11.50;;;;;21.70;98826.00;;;;2050847;28;20231;-57
2024/03/31 04:10:31;;;;;;;15.07;13.20;;;;;21.70;98830.00;;;;2036779;28;20224;-57
2024/03/31 04:11:32;;;;;;;15.10;13.07;;;;;21.70;98827.00;;;;2048138;28;20290;-58
2024/03/31 04:12:33;;;;;;;13.23;11.77;;;;;21.70;98827.00;;;;2049113;28;20251;-57
2024/03/31 04:13:33;;;;;;;18.07;12.13;;;;;21.70;98826.00;;;;2052614;28;20219;-57
2024/03/31 04:14:33;;;;;;;17.20;12.90;;;;;21.70;98827.00;;;;2052093;28;20220;-57
2024/03/31 04:15:34;;;;;;;13.77;12.00;;;;;21.70;98826.00;;;;2040867;28;20254;-58
2024/03/31 04:16:34;;;;;;;18.07;13.50;;;;;21.70;98830.00;;;;2048849;28;20234;-58
2024/03/31 04:17:36;;;;;;;15.10;12.23;;;;;21.70;98823.00;;;;2049941;28;20231;-58
2024/03/31 04:18:36;;;;;;;12.82;11.23;;;;;21.70;98824.00;;;;2050163;28;20278;-57
2024/03/31 04:19:37;;;;;;;15.80;12.67;;;;;21.70;98824.00;;;;2052536;28;20666;-58
2024/03/31 04:20:43;;;;;;;17.93;13.40;;;;;21.70;98826.00;;;;2040638;28;20662;-58
2024/03/31 04:21:43;;;;;;;15.55;12.40;;;;;21.70;98824.00;;;;2051578;28;20229;-58
2024/03/31 04:22:44;;;;;;;15.00;12.17;;;;;21.70;98822.00;;;;2052680;28;20230;-57
2024/03/31 04:23:44;;;;;;;15.27;12.60;;;;;21.70;98821.00;;;;2051364;28;20777;-57
2024/03/31 04:24:45;;;;;;;14.67;11.10;;;;;21.70;98820.00;;;;2052579;28;20687;-58
2024/03/31 04:25:45;;;;;;;13.90;12.30;;;;;21.70;98820.00;;;;2042260;28;20216;-56
2024/03/31 04:26:45;;;;;;;14.10;12.43;;;;;21.70;98816.00;;;;2052590;28;20258;-58
2024/03/31 04:27:46;;;;;;;14.70;12.40;;;;;21.70;98810.00;;;;2050795;28;20227;-56
2024/03/31 04:28:46;;;;;;;14.67;11.70;;;;;21.70;98813.00;;;;2057886;28;20246;-56
2024/03/31 04:29:46;;;;;;;15.20;13.33;;;;;21.70;98814.00;;;;2043902;28;20647;-58
2024/03/31 04:30:47;;;;;;;15.97;12.50;;;;;21.70;98820.00;;;;2030283;28;20751;-58
2024/03/31 04:31:54;;;;;;;15.10;11.77;;;;;21.70;98817.00;;;;2052358;28;20885;-58
2024/03/31 04:32:55;;;;;;;14.77;12.10;;;;;21.70;98817.00;;;;2050097;28;20223;-58
2024/03/31 04:33:55;;;;;;;15.90;12.90;;;;;21.70;98824.00;;;;2051949;28;20211;-61
2024/03/31 04:34:56;;;;;;;13.27;11.87;;;;;21.70;98812.00;;;;2036691;28;20204;-58
2024/03/31 04:35:56;;;;;;;14.97;12.97;;;;;21.70;98813.00;;;;2051072;28;20284;-58
2024/03/31 04:36:57;;;;;;;15.37;12.43;;;;;21.70;98810.00;;;;2052072;28;20241;-57
2024/03/31 04:37:57;;;;;;;15.10;12.87;;;;;21.70;98812.00;;;;2051289;28;20603;-58
2024/03/31 04:38:57;;;;;;;14.83;11.77;;;;;21.70;98812.00;;;;2052548;28;20212;-57
2024/03/31 04:39:58;;;;;;;14.80;12.30;;;;;21.60;98804.00;;;;2042547;28;20254;-58
2024/03/31 04:40:58;;;;;;;14.90;12.20;;;;;21.60;98809.00;;;;2058424;28;20215;-57
2024/03/31 04:41:59;;;;;;;15.30;12.83;;;;;21.70;98800.00;;;;2051430;28;20278;-58
2024/03/31 04:42:59;;;;;;;15.80;12.63;;;;;21.70;98801.00;;;;2048713;28;20223;-58
2024/03/31 04:44:00;;;;;;;16.13;13.03;;;;;21.60;98794.00;;;;2051485;28;20311;-57
2024/03/31 04:45:00;;;;;;;15.57;13.00;;;;;21.60;98792.00;;;;2036388;28;20219;-58
2024/03/31 04:46:04;;;;;;;16.10;14.10;;;;;21.60;98707.00;;;;2052150;28;20215;-58
2024/03/31 04:47:05;;;;;;;13.68;12.23;;;;;21.60;98784.00;;;;2051275;28;20290;-58
2024/03/31 04:48:05;;;;;;;14.40;12.00;;;;;21.60;98788.00;;;;2052544;28;20676;-58
2024/03/31 04:49:06;;;;;;;15.93;12.60;;;;;21.60;98807.00;;;;2052043;28;20732;-57
2024/03/31 04:50:06;;;;;;;14.00;12.50;;;;;21.60;98784.00;;;;2037909;28;20541;-58
2024/03/31 04:51:07;;;;;;;13.80;11.20;;;;;21.70;98785.00;;;;2052649;28;20557;-59
2024/03/31 04:52:08;;;;;;;12.95;11.57;;;;;21.60;98793.00;;;;2051090;28;20212;-58
2024/03/31 04:53:08;;;;;;;14.03;12.53;;;;;21.60;98782.00;;;;2052280;28;20859;-57
2024/03/31 04:54:08;;;;;;;13.70;12.30;;;;;21.60;98784.00;;;;2051284;28;20270;-58
2024/03/31 04:55:09;;;;;;;15.43;12.00;;;;;21.60;98781.00;;;;2037002;28;20228;-57